Time;durP1;ratioP1;P1;durP2;ratioP2;P2;SDS_P1;SDS_P2;PMS_P1;PMS_P2;Temp;Humidity;BMP_temperature;BMP_pressure;BME280_temperature;BME280_humidity;BME280_pressure;Samples;Min_cycle;Max_cycle;Signal;HPM_P1;HPM_P2
2023/04/19 05:00:20;;;;;;;17.40;15.80;;;;;;;;;;1756054;28;20186;-65
2023/04/19 05:01:11;;;;;;;19.13;16.63;;;;;;;;;;1755916;28;20569;-65
2023/04/19 05:02:03;;;;;;;17.90;16.13;;;;;;;;;;1755957;28;20567;-65
2023/04/19 05:02:54;;;;;;;19.60;17.60;;;;;;;;;;1755961;28;20584;-65
2023/04/19 05:03:46;;;;;;;20.25;18.35;;;;;;;;;;1755962;28;20202;-64
2023/04/19 05:04:37;;;;;;;18.48;16.63;;;;;;;;;;1755685;28;20233;-65
2023/04/19 05:05:29;;;;;;;19.05;17.05;;;;;;;;;;1755989;28;20201;-65
2023/04/19 05:06:20;;;;;;;18.10;16.33;;;;;;;;;;1755595;28;20209;-65
2023/04/19 05:07:12;;;;;;;18.60;15.65;;;;;;;;;;1755920;28;20201;-65
2023/04/19 05:08:04;;;;;;;16.92;15.43;;;;;;;;;;1755952;28;20214;-64
2023/04/19 05:08:56;;;;;;;18.10;16.30;;;;;;;;;;1756219;28;20225;-67
2023/04/19 05:09:47;;;;;;;18.60;16.70;;;;;;;;;;1755892;28;20205;-68
2023/04/19 05:10:39;;;;;;;17.63;15.82;;;;;;;;;;1755786;28;20224;-66
2023/04/19 05:11:30;;;;;;;18.58;16.63;;;;;;;;;;1753428;28;20564;-66
2023/04/19 05:12:22;;;;;;;17.90;16.10;;;;;;;;;;1751698;28;20594;-66
2023/04/19 05:13:13;;;;;;;21.02;17.10;;;;;;;;;;1755636;28;20198;-66
2023/04/19 05:14:05;;;;;;;18.08;16.27;;;;;;;;;;1754657;28;20769;-66
2023/04/19 05:14:57;;;;;;;18.48;16.50;;;;;;;;;;1754805;28;20209;-66
2023/04/19 05:15:50;;;;;;;18.05;16.25;;;;;;;;;;1755663;28;20247;-66
2023/04/19 05:16:41;;;;;;;18.48;16.65;;;;;;;;;;1747868;28;20238;-65
2023/04/19 05:17:33;;;;;;;18.80;16.92;;;;;;;;;;1748687;28;20556;-66
2023/04/19 05:18:24;;;;;;;18.88;17.05;;;;;;;;;;1752836;28;20300;-66
2023/04/19 05:19:16;;;;;;;18.80;16.90;;;;;;;;;;1755724;28;20277;-65
2023/04/19 05:20:08;;;;;;;19.42;16.20;;;;;;;;;;1755414;28;20194;-65
2023/04/19 05:21:00;;;;;;;17.90;16.20;;;;;;;;;;1755584;28;20221;-66
2023/04/19 05:21:51;;;;;;;18.67;16.92;;;;;;;;;;1755401;28;20197;-66
2023/04/19 05:22:43;;;;;;;19.63;17.15;;;;;;;;;;1755653;28;20205;-66
2023/04/19 05:23:34;;;;;;;18.30;16.40;;;;;;;;;;1755417;28;20253;-66
2023/04/19 05:24:26;;;;;;;18.35;16.42;;;;;;;;;;1750879;28;20264;-66
2023/04/19 05:25:17;;;;;;;19.38;17.40;;;;;;;;;;1755616;28;20589;-66
2023/04/19 05:26:11;;;;;;;18.70;16.70;;;;;;;;;;1755511;28;20213;-66
2023/04/19 05:27:02;;;;;;;20.55;18.55;;;;;;;;;;1754937;28;20205;-66
2023/04/19 05:27:54;;;;;;;19.23;17.23;;;;;;;;;;1755452;28;20281;-66
2023/04/19 05:28:45;;;;;;;21.48;19.27;;;;;;;;;;1755186;28;20190;-66
2023/04/19 05:29:37;;;;;;;21.67;19.48;;;;;;;;;;1755375;28;20726;-66
2023/04/19 05:30:28;;;;;;;21.70;19.40;;;;;;;;;;1754908;28;20669;-66
2023/04/19 05:31:22;;;;;;;21.05;18.95;;;;;;;;;;1755383;28;20228;-66
2023/04/19 05:32:13;;;;;;;22.00;18.63;;;;;;;;;;1755351;28;20220;-66
2023/04/19 05:33:05;;;;;;;20.05;18.05;;;;;;;;;;1755017;28;20213;-66
2023/04/19 05:33:56;;;;;;;19.67;17.67;;;;;;;;;;1755071;28;20206;-66
2023/04/19 05:34:48;;;;;;;19.75;17.77;;;;;;;;;;1755283;28;20214;-66
2023/04/19 05:35:39;;;;;;;18.80;17.10;;;;;;;;;;1755476;28;20206;-66
2023/04/19 05:36:32;;;;;;;18.73;16.88;;;;;;;;;;1754253;28;20202;-66
2023/04/19 05:37:23;;;;;;;18.90;17.10;;;;;;;;;;1754571;28;20209;-66
2023/04/19 05:38:15;;;;;;;18.88;17.05;;;;;;;;;;1748210;28;20226;-66
2023/04/19 05:39:06;;;;;;;20.10;18.00;;;;;;;;;;1747921;28;20684;-66
2023/04/19 05:39:58;;;;;;;18.90;16.98;;;;;;;;;;1754829;28;20247;-66
2023/04/19 05:40:49;;;;;;;18.48;16.67;;;;;;;;;;1755383;28;20222;-66
2023/04/19 05:41:41;;;;;;;18.23;16.42;;;;;;;;;;1755178;28;20221;-66
2023/04/19 05:42:33;;;;;;;18.20;16.40;;;;;;;;;;1755489;28;20202;-66
2023/04/19 05:43:25;;;;;;;18.58;16.67;;;;;;;;;;1755223;28;20255;-66
2023/04/19 05:44:16;;;;;;;18.25;16.27;;;;;;;;;;1755514;28;20197;-66
2023/04/19 05:45:08;;;;;;;18.13;16.23;;;;;;;;;;1755651;28;20201;-66
2023/04/19 05:46:00;;;;;;;18.08;16.30;;;;;;;;;;1755634;28;20661;-66
2023/04/19 05:46:53;;;;;;;18.40;16.70;;;;;;;;;;1754765;28;20212;-67
2023/04/19 05:47:44;;;;;;;17.80;16.00;;;;;;;;;;1755435;28;20201;-66
2023/04/19 05:48:36;;;;;;;18.10;16.20;;;;;;;;;;1755535;28;20212;-66
2023/04/19 05:49:27;;;;;;;17.95;16.15;;;;;;;;;;1755264;28;20212;-66
2023/04/19 05:50:20;;;;;;;19.05;17.13;;;;;;;;;;1755455;28;20209;-65
2023/04/19 05:51:11;;;;;;;18.05;16.35;;;;;;;;;;1755210;28;20197;-67
2023/04/19 05:52:03;;;;;;;18.80;16.75;;;;;;;;;;1755391;28;20288;-66
2023/04/19 05:52:54;;;;;;;19.55;16.23;;;;;;;;;;1755456;28;20217;-66
2023/04/19 05:53:46;;;;;;;18.08;16.20;;;;;;;;;;1755475;28;20201;-66
2023/04/19 05:54:37;;;;;;;18.77;16.95;;;;;;;;;;1755444;28;20212;-66
2023/04/19 05:55:29;;;;;;;19.15;17.23;;;;;;;;;;1755421;28;20198;-65
2023/04/19 05:56:20;;;;;;;18.38;16.45;;;;;;;;;;1754636;28;20209;-65
2023/04/19 05:57:12;;;;;;;19.13;17.30;;;;;;;;;;1754962;28;20193;-66
2023/04/19 05:58:03;;;;;;;18.83;17.00;;;;;;;;;;1755346;28;20254;-66
2023/04/19 05:58:56;;;;;;;18.40;16.60;;;;;;;;;;1755482;28;20288;-65
2023/04/19 05:59:47;;;;;;;18.95;17.15;;;;;;;;;;1755406;28;20258;-66
2023/04/19 06:00:39;;;;;;;19.85;17.73;;;;;;;;;;1755403;28;20221;-66
2023/04/19 06:01:30;;;;;;;20.83;18.80;;;;;;;;;;1755217;28;20238;-66
2023/04/19 06:02:24;;;;;;;18.83;16.95;;;;;;;;;;1755490;28;20250;-66
2023/04/19 06:03:15;;;;;;;19.52;17.60;;;;;;;;;;1755331;28;20216;-65
2023/04/19 06:04:07;;;;;;;19.80;17.80;;;;;;;;;;1755378;28;20206;-66
2023/04/19 06:04:58;;;;;;;20.20;18.05;;;;;;;;;;1755324;28;20205;-66
2023/04/19 06:05:50;;;;;;;18.67;16.73;;;;;;;;;;1754696;28;20254;-65
2023/04/19 06:06:41;;;;;;;17.92;16.17;;;;;;;;;;1754061;28;20201;-65
2023/04/19 06:07:33;;;;;;;18.42;16.73;;;;;;;;;;1754495;28;20683;-66
2023/04/19 06:08:24;;;;;;;18.00;16.17;;;;;;;;;;1754894;28;20217;-66
2023/04/19 06:09:17;;;;;;;19.45;17.38;;;;;;;;;;1755422;28;20217;-66
2023/04/19 06:10:09;;;;;;;17.65;15.85;;;;;;;;;;1748309;28;20205;-66
2023/04/19 06:11:01;;;;;;;19.23;17.33;;;;;;;;;;1748161;28;20252;-66
2023/04/19 06:11:53;;;;;;;18.60;16.55;;;;;;;;;;1748515;28;20230;-66
2023/04/19 06:12:45;;;;;;;20.00;17.98;;;;;;;;;;1748346;28;20248;-66
2023/04/19 06:13:36;;;;;;;18.20;16.50;;;;;;;;;;1750321;28;20194;-66
2023/04/19 06:14:28;;;;;;;19.70;17.70;;;;;;;;;;1754780;28;20198;-65
2023/04/19 06:15:20;;;;;;;18.05;16.15;;;;;;;;;;1754758;28;20250;-67
2023/04/19 06:16:12;;;;;;;18.23;16.52;;;;;;;;;;1755339;28;20671;-67
2023/04/19 06:17:03;;;;;;;18.58;16.60;;;;;;;;;;1753178;28;20206;-71
2023/04/19 06:17:56;;;;;;;18.52;16.63;;;;;;;;;;1755444;28;20667;-67
2023/04/19 06:18:47;;;;;;;19.48;17.25;;;;;;;;;;1755161;28;20690;-67
2023/04/19 06:19:40;;;;;;;17.75;16.00;;;;;;;;;;1755294;28;20230;-67
2023/04/19 06:20:32;;;;;;;19.33;17.52;;;;;;;;;;1755346;28;20228;-67
2023/04/19 06:21:23;;;;;;;17.92;16.23;;;;;;;;;;1755279;28;20208;-67
2023/04/19 06:22:15;;;;;;;18.35;16.58;;;;;;;;;;1754970;28;20561;-65
2023/04/19 06:23:06;;;;;;;17.33;15.52;;;;;;;;;;1755388;28;20620;-65
2023/04/19 06:23:58;;;;;;;18.45;16.15;;;;;;;;;;1754590;28;20222;-65
2023/04/19 06:24:50;;;;;;;18.20;16.38;;;;;;;;;;1755384;28;20201;-65
2023/04/19 06:25:42;;;;;;;18.13;16.42;;;;;;;;;;1754834;28;20198;-65
2023/04/19 06:26:34;;;;;;;19.27;17.23;;;;;;;;;;1754854;28;20649;-65
2023/04/19 06:27:25;;;;;;;16.98;15.27;;;;;;;;;;1755030;28;20209;-65
2023/04/19 06:28:17;;;;;;;18.17;16.38;;;;;;;;;;1754855;28;20209;-65
2023/04/19 06:29:08;;;;;;;18.00;16.27;;;;;;;;;;1755281;28;20210;-66
2023/04/19 06:30:00;;;;;;;19.25;16.20;;;;;;;;;;1754645;28;20197;-65
2023/04/19 06:30:51;;;;;;;17.50;15.73;;;;;;;;;;1754649;28;20229;-66
2023/04/19 06:31:45;;;;;;;18.73;16.50;;;;;;;;;;1755039;28;20251;-65
2023/04/19 06:32:36;;;;;;;17.45;15.77;;;;;;;;;;1754365;28;20301;-65
2023/04/19 06:33:29;;;;;;;18.15;15.73;;;;;;;;;;1754013;28;20255;-66
2023/04/19 06:34:20;;;;;;;17.25;15.55;;;;;;;;;;1755346;28;20209;-65
2023/04/19 06:35:12;;;;;;;16.55;15.05;;;;;;;;;;1755371;28;20194;-65
2023/04/19 06:36:04;;;;;;;17.92;16.23;;;;;;;;;;1755166;28;20676;-65
2023/04/19 06:36:56;;;;;;;17.65;15.88;;;;;;;;;;1754920;28;20251;-65
2023/04/19 06:37:47;;;;;;;19.27;17.38;;;;;;;;;;1755259;28;20212;-65
2023/04/19 06:38:40;;;;;;;17.90;16.30;;;;;;;;;;1755278;28;20202;-65
2023/04/19 06:39:31;;;;;;;19.05;17.15;;;;;;;;;;1755233;28;20744;-65
2023/04/19 06:40:23;;;;;;;18.33;16.52;;;;;;;;;;1755194;28;20225;-65
2023/04/19 06:41:14;;;;;;;17.90;16.00;;;;;;;;;;1755307;28;20232;-65
2023/04/19 06:42:06;;;;;;;18.60;16.80;;;;;;;;;;1755230;28;20197;-65
2023/04/19 06:42:57;;;;;;;17.58;15.88;;;;;;;;;;1755204;28;20241;-65
2023/04/19 06:43:49;;;;;;;18.90;17.10;;;;;;;;;;1755139;28;20217;-68
2023/04/19 06:44:40;;;;;;;18.38;16.48;;;;;;;;;;1755204;28;20209;-65
2023/04/19 06:45:32;;;;;;;17.33;15.63;;;;;;;;;;1755228;28;20194;-66
2023/04/19 06:46:24;;;;;;;18.55;16.65;;;;;;;;;;1754914;28;20208;-65
2023/04/19 06:47:16;;;;;;;17.52;15.73;;;;;;;;;;1755171;28;20209;-65
2023/04/19 06:48:07;;;;;;;17.08;15.40;;;;;;;;;;1754864;28;20244;-65
2023/04/19 06:49:00;;;;;;;18.17;16.38;;;;;;;;;;1755061;28;20229;-64
2023/04/19 06:49:51;;;;;;;17.92;16.17;;;;;;;;;;1755213;28;20197;-65
2023/04/19 06:50:43;;;;;;;19.70;16.10;;;;;;;;;;1755173;28;20271;-65
2023/04/19 06:51:34;;;;;;;17.75;16.05;;;;;;;;;;1755224;28;20202;-65
2023/04/19 06:52:26;;;;;;;18.63;16.75;;;;;;;;;;1755249;28;20201;-65
2023/04/19 06:53:17;;;;;;;17.73;15.95;;;;;;;;;;1755154;28;20197;-65
2023/04/19 06:54:10;;;;;;;18.33;16.40;;;;;;;;;;1755194;28;20560;-64
2023/04/19 06:55:01;;;;;;;18.52;16.70;;;;;;;;;;1755142;28;20574;-65
2023/04/19 06:55:54;;;;;;;18.63;16.65;;;;;;;;;;1755249;28;20194;-65
2023/04/19 06:56:46;;;;;;;18.45;16.65;;;;;;;;;;1754881;28;20208;-65
2023/04/19 06:57:38;;;;;;;17.98;16.10;;;;;;;;;;1755149;28;20209;-65
2023/04/19 06:58:29;;;;;;;17.60;15.10;;;;;;;;;;1755225;28;20661;-65
2023/04/19 06:59:21;;;;;;;18.70;16.52;;;;;;;;;;1755129;28;20325;-65
2023/04/19 07:00:13;;;;;;;19.20;15.20;;;;;;;;;;1755217;28;20206;-64
2023/04/19 07:01:06;;;;;;;17.85;16.00;;;;;;;;;;1755143;28;20194;-65
2023/04/19 07:01:57;;;;;;;18.35;16.42;;;;;;;;;;1755106;28;20665;-65
2023/04/19 07:02:49;;;;;;;17.98;16.10;;;;;;;;;;1755095;28;20243;-65
2023/04/19 07:03:40;;;;;;;17.35;15.05;;;;;;;;;;1755096;28;20232;-65
2023/04/19 07:04:35;;;;;;;17.58;15.88;;;;;;;;;;1755190;28;20212;-65
2023/04/19 07:05:26;;;;;;;18.08;16.17;;;;;;;;;;1754903;28;20561;-65
2023/04/19 07:06:18;;;;;;;17.23;15.60;;;;;;;;;;1754776;28;20616;-65
2023/04/19 07:07:09;;;;;;;18.73;15.52;;;;;;;;;;1755068;28;20711;-65
2023/04/19 07:08:01;;;;;;;18.50;16.55;;;;;;;;;;1755039;28;20193;-66
2023/04/19 07:08:53;;;;;;;15.95;14.40;;;;;;;;;;1754846;28;20582;-65
2023/04/19 07:09:45;;;;;;;17.17;15.48;;;;;;;;;;1755069;28;20348;-66
2023/04/19 07:10:36;;;;;;;16.15;14.45;;;;;;;;;;1755036;28;20218;-66
2023/04/19 07:11:28;;;;;;;17.00;15.40;;;;;;;;;;1755052;28;20202;-65
2023/04/19 07:12:20;;;;;;;17.50;15.35;;;;;;;;;;1755044;28;20198;-66
2023/04/19 07:13:11;;;;;;;17.42;15.80;;;;;;;;;;1754449;28;20202;-66
2023/04/19 07:14:03;;;;;;;16.77;15.18;;;;;;;;;;1755037;28;20198;-66
2023/04/19 07:14:56;;;;;;;16.98;15.27;;;;;;;;;;1755034;28;20201;-65
2023/04/19 07:15:48;;;;;;;17.30;15.55;;;;;;;;;;1755027;28;20568;-65
2023/04/19 07:16:39;;;;;;;16.02;14.63;;;;;;;;;;1754736;28;20578;-65
2023/04/19 07:17:31;;;;;;;16.52;14.93;;;;;;;;;;1754976;28;20202;-65
2023/04/19 07:18:22;;;;;;;17.48;15.73;;;;;;;;;;1754974;28;20629;-64
2023/04/19 07:19:14;;;;;;;17.75;16.15;;;;;;;;;;1755063;28;20186;-66
2023/04/19 07:20:08;;;;;;;17.05;14.82;;;;;;;;;;1755002;28;20198;-65
2023/04/19 07:21:00;;;;;;;16.30;14.80;;;;;;;;;;1754865;28;20332;-66
2023/04/19 07:21:51;;;;;;;19.20;16.70;;;;;;;;;;1754984;28;20356;-65
2023/04/19 07:22:43;;;;;;;17.15;15.55;;;;;;;;;;1754702;28;20714;-65
2023/04/19 07:23:34;;;;;;;16.13;14.52;;;;;;;;;;1754990;28;20692;-65
2023/04/19 07:24:28;;;;;;;16.63;15.02;;;;;;;;;;1754921;28;20221;-65
2023/04/19 07:25:19;;;;;;;16.38;14.82;;;;;;;;;;1754926;28;20213;-66
2023/04/19 07:26:13;;;;;;;16.10;14.48;;;;;;;;;;1754891;28;20547;-64
2023/04/19 07:27:04;;;;;;;16.85;15.15;;;;;;;;;;1754839;28;20201;-66
2023/04/19 07:27:56;;;;;;;16.73;15.13;;;;;;;;;;1754986;28;20208;-65
2023/04/19 07:28:48;;;;;;;17.30;15.60;;;;;;;;;;1754924;28;20202;-65
2023/04/19 07:29:41;;;;;;;16.98;15.27;;;;;;;;;;1754996;28;20206;-68
2023/04/19 07:30:32;;;;;;;17.60;15.80;;;;;;;;;;1755002;28;20201;-65
2023/04/19 07:31:24;;;;;;;17.08;15.15;;;;;;;;;;1754989;28;20322;-65
2023/04/19 07:32:15;;;;;;;15.77;14.27;;;;;;;;;;1754936;28;20213;-64
2023/04/19 07:33:08;;;;;;;17.08;15.38;;;;;;;;;;1754949;28;20201;-65
2023/04/19 07:33:59;;;;;;;16.02;14.40;;;;;;;;;;1754901;28;20214;-65
2023/04/19 07:34:51;;;;;;;15.32;13.82;;;;;;;;;;1754919;28;20730;-65
2023/04/19 07:35:44;;;;;;;15.95;14.35;;;;;;;;;;1754960;28;20198;-65
2023/04/19 07:36:36;;;;;;;16.48;14.88;;;;;;;;;;1754626;28;20216;-65
2023/04/19 07:37:27;;;;;;;16.48;14.68;;;;;;;;;;1754595;28;20740;-66
2023/04/19 07:38:20;;;;;;;16.02;14.43;;;;;;;;;;1754706;28;20194;-66
2023/04/19 07:39:12;;;;;;;16.40;14.77;;;;;;;;;;1754939;28;20543;-66
2023/04/19 07:40:05;;;;;;;15.40;14.00;;;;;;;;;;1754614;28;20202;-65
2023/04/19 07:40:56;;;;;;;16.90;15.13;;;;;;;;;;1754847;28;20739;-65
2023/04/19 07:41:48;;;;;;;16.00;14.40;;;;;;;;;;1754859;28;20630;-65
2023/04/19 07:42:39;;;;;;;17.63;15.10;;;;;;;;;;1754909;28;20576;-65
2023/04/19 07:43:31;;;;;;;13.95;12.45;;;;;;;;;;1754865;28;20206;-64
2023/04/19 07:44:22;;;;;;;15.10;13.60;;;;;;;;;;1754800;28;20217;-65
2023/04/19 07:45:14;;;;;;;15.88;14.02;;;;;;;;;;1754936;28;20194;-66
2023/04/19 07:46:09;;;;;;;16.40;14.50;;;;;;;;;;1754849;28;20201;-65
2023/04/19 07:47:01;;;;;;;15.77;14.20;;;;;;;;;;1754477;28;20217;-65
2023/04/19 07:47:52;;;;;;;15.38;13.77;;;;;;;;;;1754948;28;20208;-65
2023/04/19 07:48:44;;;;;;;15.40;13.90;;;;;;;;;;1754883;28;20649;-65
2023/04/19 07:49:35;;;;;;;15.88;14.38;;;;;;;;;;1754832;28;20228;-65
2023/04/19 07:50:27;;;;;;;15.70;14.10;;;;;;;;;;1754750;28;20608;-65
2023/04/19 07:51:22;;;;;;;17.10;15.38;;;;;;;;;;1754899;28;20202;-66
2023/04/19 07:52:14;;;;;;;15.25;13.85;;;;;;;;;;1754529;28;20194;-65
2023/04/19 07:53:05;;;;;;;15.98;14.38;;;;;;;;;;1754770;28;20197;-66
2023/04/19 07:53:57;;;;;;;15.43;13.93;;;;;;;;;;1754901;28;20201;-65
2023/04/19 07:54:48;;;;;;;15.15;13.70;;;;;;;;;;1754828;28;20206;-65
2023/04/19 07:55:40;;;;;;;16.42;14.82;;;;;;;;;;1754827;28;20194;-65
2023/04/19 07:56:32;;;;;;;17.45;15.75;;;;;;;;;;1754468;28;20202;-65
2023/04/19 07:57:24;;;;;;;16.90;15.18;;;;;;;;;;1754729;28;20614;-65
2023/04/19 07:58:15;;;;;;;15.90;14.32;;;;;;;;;;1754867;28;20643;-65
2023/04/19 07:59:07;;;;;;;16.75;15.05;;;;;;;;;;1754803;28;20201;-65
2023/04/19 07:59:58;;;;;;;16.30;14.70;;;;;;;;;;1754797;28;20198;-64
2023/04/19 08:00:50;;;;;;;18.58;15.80;;;;;;;;;;1754765;28;20224;-66
2023/04/19 08:01:42;;;;;;;17.00;15.30;;;;;;;;;;1754805;28;20216;-66
2023/04/19 08:02:34;;;;;;;15.77;14.27;;;;;;;;;;1754918;28;20677;-66
2023/04/19 08:03:25;;;;;;;17.25;15.07;;;;;;;;;;1754818;28;20212;-66
2023/04/19 08:04:18;;;;;;;17.60;14.95;;;;;;;;;;1754739;28;20190;-65
2023/04/19 08:05:09;;;;;;;16.13;14.43;;;;;;;;;;1754814;28;20745;-66
2023/04/19 08:06:03;;;;;;;17.00;15.40;;;;;;;;;;1754776;28;20350;-66
2023/04/19 08:06:56;;;;;;;16.50;14.73;;;;;;;;;;1754404;28;20696;-65
2023/04/19 08:07:48;;;;;;;15.98;14.48;;;;;;;;;;1754799;28;20201;-65
2023/04/19 08:08:39;;;;;;;15.80;14.20;;;;;;;;;;1754487;28;20213;-66
2023/04/19 08:09:31;;;;;;;16.45;14.77;;;;;;;;;;1754789;28;20323;-66
2023/04/19 08:10:22;;;;;;;16.05;14.45;;;;;;;;;;1754682;28;20211;-66
2023/04/19 08:11:15;;;;;;;15.80;14.25;;;;;;;;;;1754847;28;20194;-66
2023/04/19 08:12:06;;;;;;;17.60;15.85;;;;;;;;;;1754741;28;20202;-66
2023/04/19 08:12:58;;;;;;;16.08;14.48;;;;;;;;;;1754740;28;20190;-66
2023/04/19 08:13:49;;;;;;;15.18;13.55;;;;;;;;;;1754753;28;20197;-66
2023/04/19 08:14:41;;;;;;;16.40;14.48;;;;;;;;;;1754736;28;20198;-66
2023/04/19 08:15:32;;;;;;;16.45;14.60;;;;;;;;;;1754831;28;20201;-66
2023/04/19 08:16:26;;;;;;;16.30;14.70;;;;;;;;;;1754488;28;20572;-66
2023/04/19 08:17:20;;;;;;;16.40;14.80;;;;;;;;;;1754694;28;20206;-65
2023/04/19 08:18:12;;;;;;;14.93;13.43;;;;;;;;;;1754808;28;20201;-65
2023/04/19 08:19:03;;;;;;;15.98;14.35;;;;;;;;;;1754707;28;20240;-65
2023/04/19 08:19:55;;;;;;;15.25;13.85;;;;;;;;;;1754774;28;20201;-66
2023/04/19 08:20:46;;;;;;;16.45;14.98;;;;;;;;;;1754657;28;20226;-66
2023/04/19 08:21:38;;;;;;;16.50;14.80;;;;;;;;;;1754748;28;20204;-66
2023/04/19 08:22:30;;;;;;;16.70;15.00;;;;;;;;;;1754786;28;20250;-66
2023/04/19 08:23:23;;;;;;;15.90;14.30;;;;;;;;;;1754632;28;20220;-66
2023/04/19 08:24:14;;;;;;;19.73;15.15;;;;;;;;;;1754962;28;20206;-66
2023/04/19 08:25:07;;;;;;;16.00;14.48;;;;;;;;;;1756128;28;20443;-66
2023/04/19 08:25:58;;;;;;;15.73;14.20;;;;;;;;;;1755764;28;20198;-66
2023/04/19 08:26:53;;;;;;;15.40;13.82;;;;;;;;;;1755742;28;20216;-66
2023/04/19 08:27:44;;;;;;;15.10;13.60;;;;;;;;;;1756185;28;20568;-66
2023/04/19 08:28:36;;;;;;;15.60;13.93;;;;;;;;;;1756162;28;20196;-66
2023/04/19 08:29:27;;;;;;;15.48;13.98;;;;;;;;;;1756207;28;20225;-66
2023/04/19 08:30:19;;;;;;;15.07;13.65;;;;;;;;;;1755975;28;20649;-66
2023/04/19 08:31:11;;;;;;;16.17;14.48;;;;;;;;;;1756151;28;20280;-66
2023/04/19 08:32:02;;;;;;;15.77;14.18;;;;;;;;;;1756107;28;20592;-66
2023/04/19 08:32:55;;;;;;;16.58;14.80;;;;;;;;;;1756185;28;20198;-66
2023/04/19 08:33:46;;;;;;;15.70;14.18;;;;;;;;;;1756218;28;20297;-66
2023/04/19 08:34:39;;;;;;;16.05;14.50;;;;;;;;;;1756301;28;20198;-66
2023/04/19 08:35:30;;;;;;;15.77;14.27;;;;;;;;;;1756094;28;20202;-65
2023/04/19 08:36:22;;;;;;;15.82;14.32;;;;;;;;;;1755708;28;20193;-65
2023/04/19 08:37:13;;;;;;;14.95;13.45;;;;;;;;;;1756059;28;20198;-65
2023/04/19 08:38:06;;;;;;;14.98;13.48;;;;;;;;;;1756120;28;20194;-65
2023/04/19 08:38:57;;;;;;;15.80;14.05;;;;;;;;;;1756118;28;20205;-66
2023/04/19 08:39:50;;;;;;;14.95;13.45;;;;;;;;;;1756177;28;20247;-65
2023/04/19 08:40:42;;;;;;;16.83;15.00;;;;;;;;;;1755964;28;20316;-65
2023/04/19 08:41:35;;;;;;;16.10;14.35;;;;;;;;;;1756217;28;20792;-66
2023/04/19 08:42:26;;;;;;;16.50;14.90;;;;;;;;;;1755768;28;20202;-66
2023/04/19 08:43:20;;;;;;;16.92;15.00;;;;;;;;;;1756041;28;20198;-68
2023/04/19 08:44:12;;;;;;;15.85;14.25;;;;;;;;;;1756059;28;20208;-66
2023/04/19 08:45:05;;;;;;;20.95;14.80;;;;;;;;;;1755979;28;20214;-66
2023/04/19 08:45:58;;;;;;;16.05;14.40;;;;;;;;;;1756042;28;20197;-65
2023/04/19 08:46:49;;;;;;;14.80;12.70;;;;;;;;;;1755645;28;20205;-66
2023/04/19 08:47:41;;;;;;;14.38;12.90;;;;;;;;;;1756024;28;20578;-66
2023/04/19 08:48:35;;;;;;;15.60;13.90;;;;;;;;;;1756049;28;20703;-66
2023/04/19 08:49:28;;;;;;;15.52;13.93;;;;;;;;;;1755936;28;20212;-65
2023/04/19 08:50:20;;;;;;;14.80;13.25;;;;;;;;;;1755949;28;20194;-66
2023/04/19 08:51:14;;;;;;;15.55;14.05;;;;;;;;;;1755966;28;20706;-66
2023/04/19 08:52:07;;;;;;;14.23;12.82;;;;;;;;;;1756017;28;20201;-66
2023/04/19 08:53:00;;;;;;;15.43;13.07;;;;;;;;;;1755997;28;20225;-67
2023/04/19 08:53:55;;;;;;;15.07;12.73;;;;;;;;;;1756064;28;20208;-66
2023/04/19 08:54:47;;;;;;;17.83;14.23;;;;;;;;;;1756015;28;20194;-66
2023/04/19 08:55:38;;;;;;;16.35;13.75;;;;;;;;;;1755930;28;20228;-66
2023/04/19 08:56:31;;;;;;;13.15;11.95;;;;;;;;;;1755770;28;20558;-66
2023/04/19 08:57:22;;;;;;;15.25;12.38;;;;;;;;;;1755614;28;20198;-66
2023/04/19 08:58:14;;;;;;;13.48;12.27;;;;;;;;;;1755998;28;20190;-66
2023/04/19 08:59:05;;;;;;;12.90;11.70;;;;;;;;;;1755942;28;20573;-66
2023/04/19 08:59:57;;;;;;;12.48;11.27;;;;;;;;;;1756005;28;20197;-65
2023/04/19 09:00:49;;;;;;;14.10;12.55;;;;;;;;;;1755887;28;20225;-65
2023/04/19 09:01:41;;;;;;;13.70;12.45;;;;;;;;;;1755916;28;20206;-67
2023/04/19 09:02:44;;;;;;;13.15;11.88;;;;;;;;;;1755961;28;20201;-66
2023/04/19 09:03:36;;;;;;;13.80;12.40;;;;;;;;;;1755988;28;20578;-66
2023/04/19 09:04:27;;;;;;;13.45;12.05;;;;;;;;;;1755759;28;20319;-66
2023/04/19 09:05:20;;;;;;;12.80;11.70;;;;;;;;;;1755870;28;20206;-65
2023/04/19 09:06:11;;;;;;;16.73;13.02;;;;;;;;;;1755796;28;20201;-66
2023/04/19 09:07:03;;;;;;;13.60;12.20;;;;;;;;;;1755533;28;20246;-66
2023/04/19 09:07:54;;;;;;;13.60;12.27;;;;;;;;;;1756021;28;20192;-66
2023/04/19 09:08:46;;;;;;;13.68;12.32;;;;;;;;;;1755966;28;20202;-65
2023/04/19 09:09:41;;;;;;;11.73;10.68;;;;;;;;;;1755883;28;20202;-66
2023/04/19 09:10:33;;;;;;;11.93;10.75;;;;;;;;;;1755745;28;20254;-66
2023/04/19 09:11:36;;;;;;;12.65;11.38;;;;;;;;;;1755799;28;20581;-66
2023/04/19 09:12:28;;;;;;;13.38;11.68;;;;;;;;;;1755982;28;20232;-66
2023/04/19 09:13:19;;;;;;;12.43;11.23;;;;;;;;;;1755866;28;20201;-66
2023/04/19 09:14:12;;;;;;;11.32;10.30;;;;;;;;;;1755573;28;20193;-66
2023/04/19 09:15:03;;;;;;;12.30;11.02;;;;;;;;;;1755842;28;20228;-65
2023/04/19 09:15:58;;;;;;;16.40;10.32;;;;;;;;;;1755858;28;20197;-66
2023/04/19 09:16:51;;;;;;;11.38;10.27;;;;;;;;;;1755521;28;20228;-66
2023/04/19 09:17:43;;;;;;;11.85;10.65;;;;;;;;;;1755817;28;20266;-66
2023/04/19 09:18:53;;;;;;;12.95;10.63;;;;;;;;;;1755856;28;20201;-66
2023/04/19 09:19:45;;;;;;;11.60;10.60;;;;;;;;;;1755800;28;20213;-66
2023/04/19 09:20:38;;;;;;;10.65;9.65;;;;;;;;;;1755461;28;20248;-66
2023/04/19 09:21:29;;;;;;;10.35;9.35;;;;;;;;;;1755842;28;20661;-65
2023/04/19 09:22:21;;;;;;;9.60;8.80;;;;;;;;;;1755757;28;20205;-66
2023/04/19 09:23:13;;;;;;;10.52;9.52;;;;;;;;;;1755828;28;20229;-66
2023/04/19 09:24:06;;;;;;;10.57;9.60;;;;;;;;;;1755793;28;20669;-66
2023/04/19 09:24:59;;;;;;;9.10;8.30;;;;;;;;;;1755716;28;20233;-66
2023/04/19 09:25:55;;;;;;;10.90;9.80;;;;;;;;;;1755776;28;20202;-66
2023/04/19 09:26:53;;;;;;;10.90;9.90;;;;;;;;;;1755290;28;20254;-66
2023/04/19 09:27:46;;;;;;;11.23;10.23;;;;;;;;;;1755779;28;20705;-66
2023/04/19 09:28:37;;;;;;;10.98;10.02;;;;;;;;;;1755796;28;20224;-66
2023/04/19 09:29:29;;;;;;;10.55;9.45;;;;;;;;;;1755771;28;20217;-66
2023/04/19 09:30:22;;;;;;;11.95;9.60;;;;;;;;;;1755524;28;20590;-66
2023/04/19 09:31:14;;;;;;;10.82;9.80;;;;;;;;;;1755480;28;20194;-66
2023/04/19 09:32:05;;;;;;;9.88;8.90;;;;;;;;;;1755747;28;20198;-66
2023/04/19 09:32:57;;;;;;;10.10;9.20;;;;;;;;;;1755745;28;20545;-66
2023/04/19 09:33:48;;;;;;;10.35;9.35;;;;;;;;;;1755640;28;20209;-66
2023/04/19 09:34:51;;;;;;;10.73;9.63;;;;;;;;;;1755692;28;20730;-66
2023/04/19 09:35:43;;;;;;;11.00;9.90;;;;;;;;;;1755564;28;20206;-66
2023/04/19 09:36:35;;;;;;;11.23;9.77;;;;;;;;;;1754934;28;20218;-65
2023/04/19 09:37:27;;;;;;;9.80;8.90;;;;;;;;;;1755592;28;20240;-66
2023/04/19 09:38:18;;;;;;;10.60;9.50;;;;;;;;;;1755662;28;20205;-65
2023/04/19 09:39:10;;;;;;;11.45;9.30;;;;;;;;;;1755703;28;20196;-66
2023/04/19 09:40:20;;;;;;;11.38;9.02;;;;;;;;;;1755678;28;20266;-66
2023/04/19 09:41:12;;;;;;;10.88;9.43;;;;;;;;;;1755686;28;20206;-66
2023/04/19 09:42:03;;;;;;;10.07;9.07;;;;;;;;;;1755664;28;20198;-66
2023/04/19 09:42:56;;;;;;;9.52;8.63;;;;;;;;;;1755769;28;20672;-66
2023/04/19 09:43:47;;;;;;;10.27;8.85;;;;;;;;;;1755674;28;20205;-66
2023/04/19 09:44:39;;;;;;;10.68;9.57;;;;;;;;;;1755683;28;20284;-66
2023/04/19 09:45:40;;;;;;;9.13;8.27;;;;;;;;;;1755623;28;20774;-66
2023/04/19 09:46:32;;;;;;;9.77;8.77;;;;;;;;;;1755321;28;20657;-65
2023/04/19 09:47:25;;;;;;;10.23;9.05;;;;;;;;;;1755359;28;20208;-66
2023/04/19 09:48:16;;;;;;;9.18;8.30;;;;;;;;;;1755449;28;20198;-65
2023/04/19 09:49:19;;;;;;;9.77;8.93;;;;;;;;;;1755681;28;20193;-65
2023/04/19 09:50:12;;;;;;;8.90;8.10;;;;;;;;;;1755631;28;20202;-65
2023/04/19 09:51:03;;;;;;;8.90;8.15;;;;;;;;;;1755483;28;20236;-66
2023/04/19 09:51:55;;;;;;;8.77;7.97;;;;;;;;;;1755739;28;20194;-66
2023/04/19 09:52:48;;;;;;;9.07;8.18;;;;;;;;;;1755549;28;20197;-67
2023/04/19 09:53:41;;;;;;;8.65;7.75;;;;;;;;;;1755619;28;20201;-67
2023/04/19 09:54:32;;;;;;;9.25;8.38;;;;;;;;;;1755570;28;20204;-66
2023/04/19 09:55:26;;;;;;;10.20;9.20;;;;;;;;;;1755546;28;20194;-67
2023/04/19 09:56:18;;;;;;;9.18;8.27;;;;;;;;;;1755224;28;20284;-66
2023/04/19 09:57:10;;;;;;;8.05;7.45;;;;;;;;;;1755454;28;20240;-66
2023/04/19 09:58:01;;;;;;;10.57;8.65;;;;;;;;;;1755631;28;20193;-67
2023/04/19 09:58:53;;;;;;;9.55;8.65;;;;;;;;;;1755579;28;20536;-67
2023/04/19 09:59:44;;;;;;;9.30;8.50;;;;;;;;;;1755545;28;20225;-67
2023/04/19 10:00:36;;;;;;;10.07;9.07;;;;;;;;;;1755452;28;20325;-67
2023/04/19 10:01:28;;;;;;;9.52;8.57;;;;;;;;;;1755493;28;20198;-67
2023/04/19 10:02:21;;;;;;;10.02;8.45;;;;;;;;;;1755511;28;20189;-66
2023/04/19 10:03:12;;;;;;;9.15;8.27;;;;;;;;;;1755591;28;20198;-67
2023/04/19 10:04:05;;;;;;;9.00;8.10;;;;;;;;;;1755536;28;20198;-67